createdAt,value
2023-05-08T00:01:58.295Z,71.10
2023-05-08T00:04:28.202Z,70.90
2023-05-08T00:06:56.418Z,70.70
2023-05-08T00:09:24.546Z,70.70
2023-05-08T00:11:53.017Z,70.60
2023-05-08T00:14:21.576Z,70.50
2023-05-08T00:16:49.777Z,70.30
2023-05-08T00:19:18.421Z,70.20
2023-05-08T00:21:48.111Z,70.20
2023-05-08T00:24:16.549Z,70.00
2023-05-08T00:26:45.790Z,70.10
2023-05-08T00:29:14.642Z,70.00
2023-05-08T00:31:42.912Z,70.00
2023-05-08T00:34:11.147Z,70.00
2023-05-08T00:36:39.629Z,70.00
2023-05-08T00:39:10.165Z,70.90
2023-05-08T00:41:38.400Z,70.20
2023-05-08T00:44:06.960Z,70.10
2023-05-08T00:46:35.464Z,70.30
2023-05-08T00:49:04.833Z,70.30
2023-05-08T00:51:33.999Z,70.20
2023-05-08T00:54:02.143Z,70.20
2023-05-08T00:56:33.346Z,70.70
2023-05-08T00:59:01.617Z,70.60
2023-05-08T01:01:30.858Z,71.10
2023-05-08T01:03:59.386Z,70.50
2023-05-08T01:06:27.717Z,70.20
2023-05-08T01:08:56.335Z,70.50
2023-05-08T01:11:26.209Z,70.20
2023-05-08T01:14:00.944Z,70.00
2023-05-08T01:16:33.635Z,70.60
2023-05-08T01:19:05.224Z,70.50
2023-05-08T01:21:47.113Z,70.30
2023-05-08T01:24:34.426Z,70.90
2023-05-08T01:27:20.238Z,71.10
2023-05-08T01:30:09.461Z,71.20
2023-05-08T01:32:40.379Z,71.00
2023-05-08T01:35:13.819Z,71.30
2023-05-08T01:37:43.847Z,72.00
2023-05-08T01:40:14.062Z,71.90
2023-05-08T01:42:46.336Z,72.40
2023-05-08T01:45:17.868Z,72.10
2023-05-08T01:47:51.172Z,72.10
2023-05-08T01:50:22.119Z,72.10
2023-05-08T01:52:52.716Z,73.30
2023-05-08T01:55:22.382Z,72.50
2023-05-08T01:57:52.046Z,72.50
2023-05-08T02:00:21.747Z,72.40
2023-05-08T02:02:51.902Z,72.40
2023-05-08T02:05:21.256Z,72.70
2023-05-08T02:07:50.506Z,72.70
2023-05-08T02:10:20.151Z,72.50
2023-05-08T02:12:49.925Z,73.00
2023-05-08T02:15:18.564Z,73.00
2023-05-08T02:17:48.288Z,73.50
2023-05-08T02:20:18.039Z,73.00
2023-05-08T02:22:46.974Z,72.60
2023-05-08T02:25:16.355Z,73.10
2023-05-08T02:27:46.861Z,73.10
2023-05-08T02:30:16.996Z,73.80
2023-05-08T02:32:46.239Z,73.40
2023-05-08T02:35:16.219Z,73.60
2023-05-08T02:37:46.762Z,73.20
2023-05-08T02:40:15.750Z,73.30
2023-05-08T02:42:44.182Z,73.40
2023-05-08T02:45:13.195Z,74.00
2023-05-08T02:47:44.963Z,73.80
2023-05-08T02:50:16.241Z,73.40
2023-05-08T02:52:47.026Z,73.80
2023-05-08T02:55:17.765Z,73.40
2023-05-08T02:57:49.033Z,73.70
2023-05-08T03:00:18.432Z,74.10
2023-05-08T03:02:49.336Z,73.60
2023-05-08T03:05:19.430Z,73.40
2023-05-08T03:07:51.208Z,73.30
2023-05-08T03:10:20.542Z,73.60
2023-05-08T03:12:50.834Z,73.60
2023-05-08T03:15:24.360Z,73.90
2023-05-08T03:17:54.379Z,73.80
2023-05-08T03:20:24.857Z,74.40
2023-05-08T03:22:54.504Z,73.80
2023-05-08T03:25:22.838Z,73.80
2023-05-08T03:27:51.478Z,74.50
2023-05-08T03:30:21.013Z,73.90
2023-05-08T03:32:50.172Z,74.00
2023-05-08T03:35:18.725Z,74.00
2023-05-08T03:37:47.054Z,74.10
2023-05-08T03:40:16.635Z,74.40
2023-05-08T03:42:45.214Z,74.10
2023-05-08T03:45:15.316Z,73.70
2023-05-08T03:47:44.923Z,73.90
2023-05-08T03:50:13.406Z,74.60
2023-05-08T03:52:42.160Z,74.60
2023-05-08T03:55:11.113Z,74.70
2023-05-08T03:57:42.064Z,74.50
2023-05-08T04:00:13.341Z,74.70
2023-05-08T04:02:45.245Z,75.20
2023-05-08T04:05:16.907Z,75.00
2023-05-08T04:07:49.050Z,74.80
2023-05-08T04:10:22.033Z,74.70
2023-05-08T04:12:56.270Z,74.70
2023-05-08T04:15:26.347Z,75.10
2023-05-08T04:17:55.575Z,75.40
2023-05-08T04:20:25.578Z,75.50
2023-05-08T04:22:54.630Z,75.10
2023-05-08T04:25:23.748Z,75.40
2023-05-08T04:27:55.050Z,75.50
2023-05-08T04:30:23.363Z,76.00
2023-05-08T04:32:51.688Z,76.20
2023-05-08T04:35:19.929Z,76.30
2023-05-08T04:37:48.610Z,76.40
2023-05-08T04:40:16.855Z,76.80
2023-05-08T04:42:47.610Z,77.10
2023-05-08T04:45:17.850Z,77.10
2023-05-08T04:47:46.424Z,77.30
2023-05-08T04:50:14.784Z,77.20
2023-05-08T04:52:43.248Z,77.00
2023-05-08T04:55:12.011Z,76.40
2023-05-08T04:57:40.372Z,75.90
2023-05-08T05:00:09.359Z,75.90
2023-05-08T05:02:38.969Z,74.30
2023-05-08T05:05:07.753Z,73.80
2023-05-08T05:07:35.982Z,73.10
2023-05-08T05:10:04.614Z,71.90
2023-05-08T05:12:33.016Z,71.30
2023-05-08T05:15:01.599Z,71.70
2023-05-08T05:17:31.566Z,71.90
2023-05-08T05:20:01.337Z,71.60
2023-05-08T05:22:29.694Z,70.70
2023-05-08T05:24:57.908Z,70.10
2023-05-08T05:27:26.716Z,70.70
2023-05-08T05:29:55.395Z,70.70
2023-05-08T05:32:24.035Z,70.80
2023-05-08T05:34:53.915Z,71.20
2023-05-08T05:37:23.884Z,70.80
2023-05-08T05:39:52.132Z,71.20
2023-05-08T05:42:20.714Z,70.40
2023-05-08T05:44:49.266Z,69.50
2023-05-08T05:47:17.429Z,68.10
2023-05-08T05:49:47.451Z,65.00
2023-05-08T05:52:15.983Z,63.10
2023-05-08T05:54:46.747Z,62.50
2023-05-08T05:57:15.305Z,63.00
2023-05-08T05:59:43.594Z,61.80
2023-05-08T06:02:16.526Z,60.00
2023-05-08T06:04:45.075Z,58.80
2023-05-08T06:07:13.411Z,58.40
2023-05-08T06:09:41.806Z,57.50
2023-05-08T06:12:12.007Z,56.80
2023-05-08T06:14:40.417Z,55.80
2023-05-08T06:17:08.867Z,55.40
2023-05-08T06:19:37.519Z,55.10
2023-05-08T06:22:06.263Z,54.30
2023-05-08T06:24:35.643Z,55.30
2023-05-08T06:27:04.017Z,56.00
2023-05-08T06:29:33.921Z,55.60
2023-05-08T06:32:02.575Z,53.00
2023-05-08T06:34:31.589Z,52.70
2023-05-08T06:36:59.750Z,51.60
2023-05-08T06:39:28.327Z,50.40
2023-05-08T06:41:56.878Z,48.60
2023-05-08T06:44:25.640Z,48.00
2023-05-08T06:46:56.127Z,49.10
2023-05-08T06:49:24.416Z,49.10
2023-05-08T06:51:52.809Z,47.60
2023-05-08T06:54:21.031Z,48.40
2023-05-08T06:56:49.230Z,48.30
2023-05-08T06:59:17.550Z,48.60
2023-05-08T07:01:46.087Z,47.10
2023-05-08T07:04:15.770Z,45.90
2023-05-08T07:06:44.008Z,45.90
2023-05-08T07:09:13.935Z,45.00
2023-05-08T07:11:42.485Z,43.90
2023-05-08T07:14:11.017Z,44.70
2023-05-08T07:16:39.260Z,44.60
2023-05-08T07:19:07.563Z,45.50
2023-05-08T07:21:37.309Z,46.00
2023-05-08T07:24:05.793Z,44.70
2023-05-08T07:26:34.043Z,43.70
2023-05-08T07:29:02.542Z,42.80
2023-05-08T07:31:30.933Z,43.30
2023-05-08T07:33:59.484Z,42.10
2023-05-08T07:36:28.326Z,42.50
2023-05-08T07:38:58.334Z,41.80
2023-05-08T07:41:27.120Z,41.50
2023-05-08T07:43:55.455Z,40.20
2023-05-08T07:46:24.215Z,40.40
2023-05-08T07:48:52.523Z,38.40
2023-05-08T07:51:20.995Z,40.20
2023-05-08T07:53:51.153Z,40.90
2023-05-08T07:56:21.865Z,38.40
2023-05-08T07:58:50.061Z,39.60
2023-05-08T08:01:18.470Z,37.70
2023-05-08T08:03:46.841Z,38.80
2023-05-08T08:06:15.341Z,37.80
2023-05-08T08:08:43.747Z,36.00
2023-05-08T08:11:12.051Z,37.80
2023-05-08T08:13:41.907Z,38.00
2023-05-08T08:16:10.597Z,37.90
2023-05-08T08:18:39.064Z,38.60
2023-05-08T08:21:07.711Z,38.40
2023-05-08T08:23:36.562Z,36.00
2023-05-08T08:26:05.064Z,35.60
2023-05-08T08:28:33.418Z,35.30
2023-05-08T08:31:03.030Z,35.70
2023-05-08T08:33:32.054Z,35.00
2023-05-08T08:36:00.382Z,34.80
2023-05-08T08:38:28.521Z,33.20
2023-05-08T08:40:56.771Z,35.00
2023-05-08T08:43:24.993Z,33.00
2023-05-08T08:45:53.756Z,32.70
2023-05-08T08:48:27.577Z,33.50
2023-05-08T08:51:00.483Z,31.70
2023-05-08T08:53:32.608Z,32.60
2023-05-08T08:56:02.169Z,32.20
2023-05-08T08:58:33.816Z,30.80
2023-05-08T09:01:03.933Z,31.20
2023-05-08T09:03:34.201Z,31.70
2023-05-08T09:06:02.914Z,31.30
2023-05-08T09:08:32.712Z,31.50
2023-05-08T09:11:03.234Z,31.40
2023-05-08T09:13:31.682Z,30.10
2023-05-08T09:16:00.421Z,29.60
2023-05-08T09:18:28.828Z,30.00
2023-05-08T09:21:00.292Z,30.70
2023-05-08T09:23:28.694Z,30.70
2023-05-08T09:25:57.355Z,31.20
2023-05-08T09:28:26.141Z,30.10
2023-05-08T09:30:55.827Z,30.60
2023-05-08T09:33:25.308Z,30.90
2023-05-08T09:35:53.731Z,29.30
2023-05-08T09:38:37.830Z,28.00
2023-05-08T09:41:09.581Z,27.60
2023-05-08T09:43:38.382Z,27.90
2023-05-08T09:46:21.036Z,28.60
2023-05-08T09:48:49.387Z,29.40
2023-05-08T09:51:17.686Z,29.50
2023-05-08T09:53:47.767Z,29.40
2023-05-08T09:56:16.041Z,28.90
2023-05-08T09:58:44.715Z,29.60
2023-05-08T10:01:29.823Z,28.40
2023-05-08T10:03:58.601Z,28.90
2023-05-08T10:06:28.440Z,27.60
2023-05-08T10:09:11.886Z,27.40
2023-05-08T10:11:41.325Z,28.10
2023-05-08T10:14:09.917Z,28.10
2023-05-08T10:16:41.223Z,27.10
2023-05-08T10:19:13.667Z,26.70
2023-05-08T10:24:28.371Z,36.30
2023-05-08T10:27:07.752Z,52.30
2023-05-08T10:29:42.908Z,55.00
2023-05-08T10:32:11.929Z,56.70
2023-05-08T10:34:42.170Z,57.80
2023-05-08T10:37:11.185Z,58.50
2023-05-08T11:31:53.511Z,46.70
2023-05-08T11:34:47.578Z,40.10
2023-05-08T11:37:20.033Z,35.80
2023-05-08T11:39:49.166Z,31.60
2023-05-08T11:42:44.551Z,31.20
2023-05-08T11:45:15.334Z,30.70
2023-05-08T11:47:46.544Z,29.10
2023-05-08T11:50:15.490Z,28.60
2023-05-08T11:52:44.156Z,27.60
2023-05-08T11:55:15.675Z,27.10
2023-05-08T11:57:44.063Z,26.10
2023-05-08T12:00:13.796Z,27.20
2023-05-08T12:02:45.905Z,26.70
2023-05-08T12:05:14.464Z,28.20
2023-05-08T12:07:46.650Z,27.10
2023-05-08T12:10:16.318Z,27.30
2023-05-08T12:12:46.330Z,28.30
2023-05-08T12:15:16.196Z,25.60
2023-05-08T12:17:46.139Z,26.60
2023-05-08T12:20:16.304Z,26.20
2023-05-08T12:22:52.271Z,25.40
2023-05-08T12:25:20.994Z,25.20
2023-05-08T12:27:50.013Z,25.20
2023-05-08T12:30:19.233Z,26.80
2023-05-08T12:32:50.002Z,26.10
2023-05-08T12:35:18.926Z,25.80
2023-05-08T12:37:47.444Z,26.30
2023-05-08T12:40:27.930Z,27.20
2023-05-08T12:42:56.520Z,26.70
2023-05-08T12:45:28.016Z,25.40
2023-05-08T12:48:01.127Z,25.90
2023-05-08T12:50:31.046Z,26.00
2023-05-08T12:53:04.478Z,26.60
2023-05-08T12:55:35.485Z,25.80
2023-05-08T12:58:05.790Z,25.50
2023-05-08T13:00:41.537Z,25.20
2023-05-08T13:03:13.351Z,25.00
2023-05-08T13:05:44.113Z,24.40
2023-05-08T13:08:12.734Z,26.00
2023-05-08T13:10:51.469Z,26.20
2023-05-08T13:13:21.482Z,25.60
2023-05-08T13:15:51.153Z,25.80
2023-05-08T13:18:21.772Z,25.10
2023-05-08T13:20:50.210Z,24.80
2023-05-08T13:23:18.617Z,25.70
2023-05-08T13:25:47.154Z,25.30
2023-05-08T13:28:16.074Z,24.90
2023-05-08T13:30:44.690Z,25.30
2023-05-08T13:33:13.195Z,25.50
2023-05-08T13:35:43.013Z,26.10
2023-05-08T13:38:11.433Z,26.10
2023-05-08T13:40:39.965Z,24.50
2023-05-08T13:43:08.348Z,24.90
2023-05-08T13:45:36.901Z,25.50
2023-05-08T13:48:05.771Z,26.50
2023-05-08T13:50:34.191Z,25.90
2023-05-08T13:53:04.693Z,26.20
2023-05-08T13:55:33.483Z,25.90
2023-05-08T13:58:02.307Z,26.20
2023-05-08T14:00:30.844Z,26.60
2023-05-08T14:02:59.332Z,27.20
2023-05-08T14:05:27.875Z,27.00
2023-05-08T14:07:56.300Z,27.10
2023-05-08T14:10:26.210Z,28.50
2023-05-08T14:12:54.669Z,27.00
2023-05-08T14:15:26.873Z,27.00
2023-05-08T14:18:00.256Z,27.20
2023-05-08T14:20:28.774Z,27.40
2023-05-08T14:23:00.058Z,27.90
2023-05-08T14:25:31.136Z,27.90
2023-05-08T14:27:59.530Z,28.90
2023-05-08T14:30:28.065Z,27.50
2023-05-08T14:32:56.618Z,27.40
2023-05-08T14:35:25.045Z,28.10
2023-05-08T14:37:53.509Z,28.30
2023-05-08T14:40:24.417Z,27.00
2023-05-08T14:42:54.381Z,27.10
2023-05-08T14:45:22.730Z,28.30
2023-05-08T14:47:51.090Z,27.50
2023-05-08T14:50:19.654Z,27.30
2023-05-08T14:52:48.094Z,27.00
2023-05-08T14:55:20.556Z,27.90
2023-05-08T14:57:49.684Z,28.90
2023-05-08T15:00:21.260Z,28.80
2023-05-08T15:02:49.993Z,29.00
2023-05-08T15:05:20.158Z,28.50
2023-05-08T15:07:49.984Z,28.30
2023-05-08T15:10:18.432Z,28.70
2023-05-08T15:12:46.984Z,28.10
2023-05-08T15:15:15.693Z,27.80
2023-05-08T15:17:45.836Z,28.10
2023-05-08T15:20:14.391Z,28.70
2023-05-08T15:22:42.869Z,29.10
2023-05-08T15:25:11.925Z,29.40
2023-05-08T15:27:41.811Z,28.80
2023-05-08T15:30:11.254Z,29.50
2023-05-08T15:32:40.259Z,29.60
2023-05-08T15:35:10.578Z,29.10
2023-05-08T15:37:39.747Z,28.80
2023-05-08T15:40:09.266Z,29.30
2023-05-08T15:42:37.812Z,30.20
2023-05-08T15:45:06.900Z,30.10
2023-05-08T15:47:35.423Z,29.90
2023-05-08T15:50:03.850Z,29.90
2023-05-08T15:52:33.695Z,30.30
2023-05-08T15:55:02.578Z,30.20
2023-05-08T15:57:31.006Z,29.90
2023-05-08T15:59:59.594Z,30.60
2023-05-08T16:02:28.082Z,30.40
2023-05-08T16:04:56.585Z,31.00
2023-05-08T16:07:24.991Z,31.50
2023-05-08T16:09:54.791Z,33.20
2023-05-08T16:12:23.017Z,33.00
2023-05-08T16:14:51.338Z,32.60
2023-05-08T16:17:19.719Z,32.90
2023-05-08T16:19:48.134Z,33.40
2023-05-08T16:22:16.629Z,33.20
2023-05-08T16:24:45.079Z,33.80
2023-05-08T16:27:14.874Z,34.90
2023-05-08T16:29:43.133Z,34.50
2023-05-08T16:32:11.605Z,35.20
2023-05-08T16:34:40.017Z,35.70
2023-05-08T16:37:08.486Z,35.30
2023-05-08T16:39:36.886Z,35.40
2023-05-08T16:42:06.208Z,36.40
2023-05-08T16:44:36.417Z,35.80
2023-05-08T16:47:05.075Z,35.70
2023-05-08T16:49:33.654Z,36.40
2023-05-08T16:52:02.638Z,36.30
2023-05-08T16:54:31.115Z,37.50
2023-05-08T16:56:59.557Z,38.00
2023-05-08T16:59:28.025Z,38.90
2023-05-08T17:01:57.905Z,38.50
2023-05-08T17:04:26.159Z,39.20
2023-05-08T17:06:54.484Z,40.00
2023-05-08T17:09:25.184Z,39.90
2023-05-08T17:11:53.678Z,39.20
2023-05-08T17:14:22.158Z,39.40
2023-05-08T17:16:50.534Z,40.20
2023-05-08T17:19:20.367Z,40.70
2023-05-08T17:21:48.657Z,40.70
2023-05-08T17:24:17.149Z,40.90
2023-05-08T17:26:45.572Z,41.20
2023-05-08T17:29:14.007Z,41.80
2023-05-08T17:31:43.868Z,41.10
2023-05-08T17:34:12.142Z,41.80
2023-05-08T17:36:42.024Z,42.30
2023-05-08T17:39:11.383Z,42.60
2023-05-08T17:41:39.751Z,43.30
2023-05-08T17:44:08.184Z,43.90
2023-05-08T17:46:36.589Z,43.90
2023-05-08T17:49:05.043Z,44.60
2023-05-08T17:51:33.486Z,44.80
2023-05-08T17:54:03.215Z,45.50
2023-05-08T17:56:31.960Z,45.80
2023-05-08T17:59:00.611Z,45.90
2023-05-08T18:01:29.512Z,46.60
2023-05-08T18:03:58.128Z,46.80
2023-05-08T18:06:26.598Z,47.20
2023-05-08T18:08:55.014Z,47.50
2023-05-08T18:11:26.794Z,47.50
2023-05-08T18:13:55.686Z,47.50
2023-05-08T18:16:24.266Z,47.80
2023-05-08T18:18:53.087Z,48.00
2023-05-08T18:21:21.592Z,47.90
2023-05-08T18:23:50.044Z,47.80
2023-05-08T18:26:18.674Z,47.60
2023-05-08T18:28:48.485Z,47.90
2023-05-08T18:31:17.040Z,47.90
2023-05-08T18:33:45.858Z,48.10
2023-05-08T18:36:14.453Z,48.10
2023-05-08T18:38:42.902Z,48.30
2023-05-08T18:41:11.390Z,48.40
2023-05-08T18:43:39.790Z,48.80
2023-05-08T18:46:13.460Z,48.80
2023-05-08T18:48:42.218Z,49.10
2023-05-08T18:51:11.182Z,49.30
2023-05-08T18:53:40.658Z,49.30
2023-05-08T18:56:09.028Z,49.50
2023-05-08T18:58:37.470Z,49.70
2023-05-08T19:01:06.897Z,49.80
2023-05-08T19:03:36.778Z,50.00
2023-05-08T19:06:06.230Z,50.10
2023-05-08T19:08:34.888Z,50.40
2023-05-08T19:11:03.311Z,50.30
2023-05-08T19:13:31.763Z,50.60
2023-05-08T19:16:00.570Z,50.70
2023-05-08T19:18:30.203Z,51.00
2023-05-08T19:20:59.992Z,51.00
2023-05-08T19:23:28.474Z,51.10
2023-05-08T19:25:56.908Z,51.20
2023-05-08T19:28:25.291Z,51.10
2023-05-08T19:30:53.771Z,51.40
2023-05-08T19:33:22.283Z,51.50
2023-05-08T19:35:50.667Z,52.80
2023-05-08T19:38:20.478Z,52.90
2023-05-08T19:40:57.089Z,53.10
2023-05-08T19:43:26.809Z,53.00
2023-05-08T19:45:56.471Z,53.10
2023-05-08T19:48:25.224Z,53.20
2023-05-08T19:50:54.830Z,53.40
2023-05-08T19:53:25.561Z,53.40
2023-05-08T19:55:54.051Z,53.60
2023-05-08T19:58:22.483Z,53.50
2023-05-08T20:00:51.606Z,53.70
2023-05-08T20:03:20.850Z,53.70
2023-05-08T20:05:49.681Z,54.00
2023-05-08T20:08:18.358Z,54.00
2023-05-08T20:10:49.053Z,54.90
2023-05-08T20:13:18.001Z,54.40
2023-05-08T20:15:46.613Z,54.70
2023-05-08T20:18:15.113Z,55.00
2023-05-08T20:20:44.974Z,55.20
2023-05-08T20:23:13.268Z,55.80
2023-05-08T20:25:41.799Z,55.70
2023-05-08T20:28:11.658Z,56.50
2023-05-08T20:30:39.900Z,56.60
2023-05-08T20:33:08.279Z,56.60
2023-05-08T20:35:36.924Z,57.80
2023-05-08T20:38:05.371Z,57.80
2023-05-08T20:40:34.008Z,58.20
2023-05-08T20:43:02.495Z,58.70
2023-05-08T20:45:32.307Z,58.00
2023-05-08T20:48:00.803Z,59.00
2023-05-08T20:50:29.829Z,59.70
2023-05-08T20:52:58.500Z,59.40
2023-05-08T20:55:27.067Z,60.00
2023-05-08T20:57:55.954Z,60.60
2023-05-08T21:00:24.635Z,61.00
2023-05-08T21:02:54.807Z,61.20
2023-05-08T21:05:23.245Z,62.10
2023-05-08T21:07:55.842Z,62.10
2023-05-08T21:10:25.835Z,62.20
2023-05-08T21:12:54.255Z,62.90
2023-05-08T21:15:22.702Z,63.20
2023-05-08T21:17:51.481Z,63.80
2023-05-08T21:20:21.805Z,64.00
2023-05-08T21:22:50.308Z,64.40
2023-05-08T21:25:19.146Z,64.70
2023-05-08T21:27:47.578Z,64.60
2023-05-08T21:30:16.481Z,64.50
2023-05-08T21:32:46.147Z,64.50
2023-05-08T21:35:15.641Z,64.90
2023-05-08T21:37:45.731Z,65.60
2023-05-08T21:40:14.035Z,65.60
2023-05-08T21:42:42.349Z,66.10
2023-05-08T21:45:11.885Z,66.60
2023-05-08T21:47:40.449Z,66.70
2023-05-08T21:50:10.572Z,66.70
2023-05-08T21:52:39.067Z,66.80
2023-05-08T21:55:10.353Z,67.30
2023-05-08T21:57:38.804Z,66.80
2023-05-08T22:00:09.191Z,67.40
2023-05-08T22:02:37.735Z,67.20
2023-05-08T22:05:07.557Z,67.40
2023-05-08T22:07:35.849Z,67.60
2023-05-08T22:10:04.235Z,68.20
2023-05-08T22:12:33.923Z,68.00
2023-05-08T22:15:02.327Z,68.00
2023-05-08T22:17:30.821Z,67.80
2023-05-08T22:19:59.236Z,68.00
2023-05-08T22:22:27.633Z,68.00
2023-05-08T22:24:56.218Z,68.30
2023-05-08T22:27:24.583Z,68.90
2023-05-08T22:29:54.373Z,70.00
2023-05-08T22:32:22.617Z,69.60
2023-05-08T22:34:51.028Z,69.50
2023-05-08T22:37:19.738Z,69.60
2023-05-08T22:39:48.218Z,69.20
2023-05-08T22:42:16.920Z,69.30
2023-05-08T22:44:46.306Z,69.20
2023-05-08T22:47:16.457Z,69.00
2023-05-08T22:49:45.062Z,69.40
2023-05-08T22:52:13.458Z,69.70
2023-05-08T22:54:41.880Z,69.30
2023-05-08T22:57:10.294Z,69.30
2023-05-08T22:59:38.686Z,68.70
2023-05-08T23:02:07.082Z,69.20
2023-05-08T23:04:36.845Z,69.60
2023-05-08T23:07:05.400Z,69.90
2023-05-08T23:09:33.833Z,70.10
2023-05-08T23:12:02.247Z,70.60
2023-05-08T23:14:30.619Z,70.70
2023-05-08T23:16:59.118Z,70.20
2023-05-08T23:19:27.574Z,70.30
2023-05-08T23:21:57.363Z,70.40
2023-05-08T23:24:25.644Z,70.90
2023-05-08T23:26:53.975Z,70.40
2023-05-08T23:29:22.452Z,70.60
2023-05-08T23:31:50.948Z,70.40
2023-05-08T23:34:19.383Z,70.50
2023-05-08T23:36:47.796Z,70.50
2023-05-08T23:39:17.609Z,70.30
2023-05-08T23:41:45.860Z,70.60
2023-05-08T23:44:14.198Z,70.40
2023-05-08T23:46:42.739Z,70.30
2023-05-08T23:49:11.411Z,70.10
2023-05-08T23:51:39.854Z,70.80
2023-05-08T23:54:08.279Z,71.00
2023-05-08T23:56:37.982Z,71.20
2023-05-08T23:59:06.512Z,71.00
